Hauptseite
METAR-TAF:

METAR-TAF

Flughäfen :

Flugplatz Locarno

Locarno, Schweiz

Breite: 46-09-55N, Länge: 8-52-40E, Höhe: 198 m

Beobachtung

Neuester Wetterbericht von vor 30 Minuten, um 03:50 UTC
Windstille
Temperatur -5°C
Luftfeuchtigkeit 93%
Luftdruck 1017 hPa
Sichtweite 10 km oder mehr

METAR: LSZL 210350Z AUTO 00000KT 9999NDV NCD M05/M06 Q1017 RMK

Zeit: 05:20 (04:20 UTC)

Prognose

Neuester Wetterbericht von vor 1 Stunde und 55 Minuten, um 02:25 UTC
Gültige Prognose vom 21 um 03 UTC bis 21 um 12 UTC
Wind 2 kt aus unterschiedlichen Richtungen
Sichtweite 10 km oder mehr
keine Wolken unter 1500 m und keine Kumulonimbus oder Gewitterwolken
Zeitweise
vom 21 um 03 UTC bis 21 um 12 UTC
Sichtweite 10 km oder mehr
Leicht bewölkt in der Höhe von 10000 ft

TAF: LSZL 210225Z 2103/2112 VRB02KT CAVOK TEMPO 2103/2112 9999 FEW100

Wetterbeobachtungen und Prognosen von mehr als 4000 Flughäfen (METAR und TAF Bericht).

Die verfügbaren Stationen werden durch gelbe und rote Markierungen auf der Karte dargestellt.

Führen Sie die Maus auf sie, um den Namen der Station zu sehen.

Darauf klicken, um die Beobachtung von Wetterbeobachtungen und Prognosen zu sehen.

Um die Karte zu ändern : klicken Sie auf den grünen Tasten mit einem schwarzen Kreuz Zum Vergrößern, auf den grünen Button mit einem Gedankenstrich zu verkleinern, oder auf die grünen Pfeile für benachbarte Karten.


METAR-TAF: